createdAt,value
2023-04-22T00:00:28.874Z,97.30
2023-04-22T00:02:56.553Z,97.50
2023-04-22T00:05:23.679Z,97.40
2023-04-22T00:07:50.899Z,97.70
2023-04-22T00:10:17.968Z,97.60
2023-04-22T00:12:44.933Z,97.70
2023-04-22T00:15:12.309Z,98.30
2023-04-22T00:17:40.451Z,99.10
2023-04-22T00:20:08.201Z,98.80
2023-04-22T00:22:35.311Z,98.30
2023-04-22T00:25:02.272Z,99.50
2023-04-22T00:27:29.391Z,99.70
2023-04-22T00:29:56.455Z,99.30
2023-04-22T00:32:23.658Z,99.40
2023-04-22T00:34:51.355Z,99.70
2023-04-22T00:37:18.455Z,99.50
2023-04-22T00:39:45.656Z,99.50
2023-04-22T00:42:14.121Z,99.50
2023-04-22T00:44:42.479Z,99.70
2023-04-22T00:47:10.028Z,99.70
2023-04-22T00:49:37.603Z,98.70
2023-04-22T00:52:05.053Z,98.60
2023-04-22T00:54:34.504Z,98.40
2023-04-22T00:57:03.022Z,99.20
2023-04-22T00:59:30.286Z,98.80
2023-04-22T01:01:58.088Z,98.70
2023-04-22T01:04:25.860Z,99.10
2023-04-22T01:06:56.477Z,98.60
2023-04-22T01:09:23.886Z,98.60
2023-04-22T01:11:51.151Z,99.30
2023-04-22T01:14:18.308Z,99.10
2023-04-22T01:16:46.477Z,99.20
2023-04-22T01:19:13.777Z,99.90
2023-04-22T01:21:43.351Z,99.90
2023-04-22T01:24:10.897Z,99.90
2023-04-22T01:26:38.241Z,99.90
2023-04-22T01:29:06.281Z,99.90
2023-04-22T01:31:33.702Z,99.90
2023-04-22T01:34:01.470Z,99.90
2023-04-22T01:36:28.985Z,99.90
2023-04-22T01:38:56.684Z,99.90
2023-04-22T01:41:26.973Z,99.90
2023-04-22T01:43:54.726Z,99.90
2023-04-22T01:46:21.707Z,99.90
2023-04-22T01:48:51.622Z,99.90
2023-04-22T01:51:23.785Z,99.90
2023-04-22T01:53:51.213Z,99.90
2023-04-22T01:56:18.782Z,99.90
2023-04-22T01:58:46.102Z,99.90
2023-04-22T02:01:14.394Z,99.60
2023-04-22T02:03:41.855Z,99.40
2023-04-22T02:06:11.112Z,99.70
2023-04-22T02:08:38.467Z,99.20
2023-04-22T02:11:05.938Z,99.50
2023-04-22T02:13:41.291Z,99.80
2023-04-22T02:16:08.652Z,99.80
2023-04-22T02:18:35.982Z,99.90
2023-04-22T02:21:03.229Z,99.40
2023-04-22T02:23:30.519Z,99.70
2023-04-22T02:25:57.940Z,99.90
2023-04-22T02:28:24.970Z,99.90
2023-04-22T02:30:52.170Z,99.90
2023-04-22T02:33:19.192Z,99.90
2023-04-22T02:35:46.667Z,99.90
2023-04-22T02:38:18.616Z,99.90
2023-04-22T02:40:46.478Z,99.90
2023-04-22T02:43:13.439Z,99.80
2023-04-22T02:45:41.048Z,99.90
2023-04-22T02:48:08.585Z,99.90
2023-04-22T02:50:36.500Z,99.50
2023-04-22T02:53:03.672Z,99.40
2023-04-22T02:55:30.664Z,99.30
2023-04-22T02:57:57.747Z,99.50
2023-04-22T03:00:24.800Z,99.70
2023-04-22T03:02:52.172Z,99.90
2023-04-22T03:05:22.874Z,99.90
2023-04-22T03:07:50.510Z,99.90
2023-04-22T03:10:17.619Z,99.90
2023-04-22T03:12:44.931Z,99.90
2023-04-22T03:15:12.750Z,99.90
2023-04-22T03:17:39.798Z,99.90
2023-04-22T03:20:11.746Z,99.90
2023-04-22T03:22:38.937Z,99.90
2023-04-22T03:25:08.032Z,99.80
2023-04-22T03:27:35.136Z,99.90
2023-04-22T03:30:02.591Z,99.90
2023-04-22T03:32:29.705Z,99.90
2023-04-22T03:35:13.927Z,99.90
2023-04-22T03:37:41.160Z,99.90
2023-04-22T03:40:13.487Z,99.90
2023-04-22T03:42:40.908Z,99.90
2023-04-22T03:45:08.433Z,99.90
2023-04-22T03:47:40.082Z,99.90
2023-04-22T03:50:18.149Z,99.90
2023-04-22T03:52:45.665Z,99.90
2023-04-22T03:55:13.526Z,99.90
2023-04-22T03:57:41.090Z,99.90
2023-04-22T04:00:08.618Z,99.90
2023-04-22T04:02:41.698Z,99.90
2023-04-22T04:05:12.587Z,99.90
2023-04-22T04:07:41.154Z,99.90
2023-04-22T04:10:08.766Z,99.90
2023-04-22T04:12:35.921Z,99.90
2023-04-22T04:15:03.210Z,99.90
2023-04-22T04:17:30.650Z,99.90
2023-04-22T04:19:58.108Z,99.90
2023-04-22T04:22:28.049Z,99.90
2023-04-22T04:24:59.118Z,99.90
2023-04-22T04:27:31.549Z,99.90
2023-04-22T04:29:58.871Z,99.90
2023-04-22T04:32:45.645Z,99.90
2023-04-22T04:35:14.883Z,99.90
2023-04-22T04:37:46.891Z,99.90
2023-04-22T04:40:14.951Z,99.90
2023-04-22T04:42:47.714Z,99.90
2023-04-22T04:45:20.843Z,99.90
2023-04-22T04:47:50.825Z,99.90
2023-04-22T04:50:23.131Z,99.90
2023-04-22T04:52:52.812Z,99.90
2023-04-22T04:55:25.609Z,99.90
2023-04-22T04:57:53.221Z,99.90
2023-04-22T05:00:20.497Z,99.90
2023-04-22T05:02:48.249Z,99.90
2023-04-22T05:05:15.686Z,99.90
2023-04-22T05:07:43.867Z,99.90
2023-04-22T05:10:13.333Z,99.90
2023-04-22T05:12:46.267Z,99.90
2023-04-22T05:15:17.680Z,99.90
2023-04-22T05:17:44.800Z,99.90
2023-04-22T05:20:12.100Z,99.50
2023-04-22T05:22:43.252Z,99.40
2023-04-22T05:25:11.008Z,98.60
2023-04-22T05:27:42.818Z,97.40
2023-04-22T05:30:11.562Z,96.80
2023-04-22T05:32:39.114Z,96.60
2023-04-22T05:35:07.022Z,96.10
2023-04-22T05:37:34.320Z,94.50
2023-04-22T05:40:01.490Z,94.10
2023-04-22T05:42:28.745Z,94.00
2023-04-22T05:44:55.829Z,92.90
2023-04-22T05:47:23.021Z,92.20
2023-04-22T05:49:50.550Z,93.50
2023-04-22T05:52:24.127Z,93.20
2023-04-22T05:55:03.958Z,91.90
2023-04-22T05:57:31.977Z,89.90
2023-04-22T06:00:01.201Z,88.20
2023-04-22T06:02:28.542Z,86.20
2023-04-22T06:04:57.420Z,85.20
2023-04-22T06:07:24.968Z,84.80
2023-04-22T06:09:59.356Z,84.10
2023-04-22T06:12:31.362Z,82.30
2023-04-22T06:14:58.385Z,81.00
2023-04-22T06:17:25.469Z,79.20
2023-04-22T06:19:53.522Z,77.60
2023-04-22T06:22:21.945Z,75.10
2023-04-22T06:24:49.044Z,74.60
2023-04-22T06:27:16.380Z,75.70
2023-04-22T06:29:43.488Z,73.30
2023-04-22T06:32:11.756Z,73.80
2023-04-22T06:34:39.255Z,70.60
2023-04-22T06:37:06.740Z,70.80
2023-04-22T06:39:33.974Z,71.40
2023-04-22T06:42:22.617Z,70.60
2023-04-22T06:45:12.788Z,67.20
2023-04-22T06:47:55.967Z,66.90
2023-04-22T06:50:29.277Z,66.80
2023-04-22T06:52:58.644Z,66.30
2023-04-22T06:55:25.802Z,63.40
2023-04-22T06:57:53.022Z,63.10
2023-04-22T07:00:20.373Z,64.60
2023-04-22T07:02:47.511Z,64.40
2023-04-22T07:05:15.866Z,65.20
2023-04-22T07:07:43.904Z,63.50
2023-04-22T07:10:17.293Z,65.40
2023-04-22T07:13:03.146Z,63.50
2023-04-22T07:15:30.298Z,62.60
2023-04-22T07:17:57.410Z,62.20
2023-04-22T07:20:24.557Z,62.00
2023-04-22T07:22:52.534Z,62.40
2023-04-22T07:25:19.562Z,62.50
2023-04-22T07:27:46.700Z,63.10
2023-04-22T07:30:14.045Z,64.00
2023-04-22T07:32:41.247Z,63.40
2023-04-22T07:35:08.850Z,63.80
2023-04-22T07:37:36.006Z,63.50
2023-04-22T07:40:03.160Z,63.80
2023-04-22T07:42:30.307Z,63.40
2023-04-22T07:44:57.341Z,64.10
2023-04-22T07:47:24.418Z,63.20
2023-04-22T07:49:51.461Z,62.90
2023-04-22T07:52:19.822Z,62.50
2023-04-22T07:54:46.912Z,62.50
2023-04-22T07:57:13.874Z,63.20
2023-04-22T07:59:41.188Z,60.60
2023-04-22T08:02:08.505Z,60.70
2023-04-22T08:04:35.848Z,60.20
2023-04-22T08:07:17.069Z,58.40
2023-04-22T08:09:51.051Z,59.50
2023-04-22T08:12:18.423Z,59.90
2023-04-22T08:14:45.529Z,60.20
2023-04-22T08:17:12.685Z,60.40
2023-04-22T08:19:40.073Z,60.70
2023-04-22T08:22:07.448Z,60.20
2023-04-22T08:24:34.544Z,57.00
2023-04-22T08:27:02.538Z,56.20
2023-04-22T08:29:29.603Z,57.00
2023-04-22T08:31:56.569Z,58.10
2023-04-22T08:34:24.969Z,57.40
2023-04-22T08:36:52.277Z,57.70
2023-04-22T08:39:19.685Z,58.20
2023-04-22T08:41:47.530Z,57.60
2023-04-22T08:44:15.454Z,59.90
2023-04-22T08:46:49.146Z,57.10
2023-04-22T08:49:16.423Z,55.00
2023-04-22T08:51:44.624Z,55.80
2023-04-22T08:54:12.233Z,55.40
2023-04-22T08:56:45.355Z,55.60
2023-04-22T08:59:13.339Z,56.90
2023-04-22T09:01:42.123Z,55.20
2023-04-22T09:04:15.282Z,56.20
2023-04-22T09:06:42.438Z,55.90
2023-04-22T09:09:09.542Z,53.90
2023-04-22T09:11:37.375Z,54.50
2023-04-22T09:14:07.810Z,55.00
2023-04-22T09:16:43.075Z,54.60
2023-04-22T09:19:14.056Z,56.80
2023-04-22T09:21:45.168Z,55.60
2023-04-22T09:24:13.352Z,54.00
2023-04-22T09:26:42.008Z,53.70
2023-04-22T09:29:14.534Z,53.30
2023-04-22T09:31:41.584Z,54.50
2023-04-22T09:34:09.119Z,54.20
2023-04-22T09:36:38.867Z,53.10
2023-04-22T09:39:08.309Z,53.40
2023-04-22T09:41:40.229Z,54.30
2023-04-22T09:44:14.885Z,52.60
2023-04-22T09:46:43.802Z,52.70
2023-04-22T09:49:11.652Z,53.60
2023-04-22T09:51:42.494Z,54.40
2023-04-22T09:54:11.808Z,53.20
2023-04-22T09:56:52.738Z,52.50
2023-04-22T09:59:32.165Z,52.80
2023-04-22T10:02:03.540Z,54.00
2023-04-22T10:04:31.528Z,52.30
2023-04-22T10:06:59.865Z,51.80
2023-04-22T10:09:26.871Z,52.90
2023-04-22T10:11:58.155Z,51.30
2023-04-22T10:14:26.086Z,55.10
2023-04-22T10:16:58.145Z,52.90
2023-04-22T10:19:27.100Z,55.10
2023-04-22T10:21:57.217Z,52.90
2023-04-22T10:24:27.611Z,54.20
2023-04-22T10:26:57.269Z,56.90
2023-04-22T10:29:26.175Z,54.50
2023-04-22T10:32:03.723Z,54.50
2023-04-22T10:34:34.189Z,54.70
2023-04-22T10:37:06.342Z,55.00
2023-04-22T10:39:33.600Z,51.70
2023-04-22T10:42:03.631Z,53.30
2023-04-22T10:44:45.273Z,51.30
2023-04-22T10:47:12.633Z,51.80
2023-04-22T10:49:39.967Z,53.70
2023-04-22T10:52:08.799Z,52.40
2023-04-22T10:54:38.638Z,51.50
2023-04-22T10:57:20.106Z,52.40
2023-04-22T10:59:50.539Z,52.00
2023-04-22T11:02:19.225Z,52.50
2023-04-22T11:04:47.227Z,53.10
2023-04-22T11:07:23.067Z,55.00
2023-04-22T11:09:51.890Z,54.70
2023-04-22T11:12:40.169Z,53.50
2023-04-22T11:15:15.847Z,51.80
2023-04-22T11:17:45.588Z,52.70
2023-04-22T11:20:14.341Z,52.70
2023-04-22T11:22:44.191Z,51.80
2023-04-22T11:25:11.514Z,54.40
2023-04-22T11:27:43.796Z,55.50
2023-04-22T11:30:12.356Z,54.90
2023-04-22T11:32:47.533Z,54.80
2023-04-22T11:35:18.183Z,54.40
2023-04-22T11:37:47.815Z,54.20
2023-04-22T11:40:31.634Z,53.40
2023-04-22T11:43:02.240Z,54.00
2023-04-22T11:45:31.204Z,53.10
2023-04-22T11:47:58.814Z,53.00
2023-04-22T11:50:28.497Z,52.50
2023-04-22T11:52:56.490Z,52.80
2023-04-22T11:55:26.045Z,50.80
2023-04-22T11:57:59.927Z,51.00
2023-04-22T12:00:35.091Z,47.80
2023-04-22T12:03:04.555Z,47.70
2023-04-22T12:05:52.819Z,46.70
2023-04-22T12:08:24.913Z,47.70
2023-04-22T12:10:57.839Z,49.60
2023-04-22T12:13:37.545Z,49.20
2023-04-22T12:16:18.138Z,48.70
2023-04-22T12:18:48.341Z,48.20
2023-04-22T12:21:17.460Z,48.90
2023-04-22T12:23:51.794Z,50.40
2023-04-22T12:26:20.584Z,49.70
2023-04-22T12:28:48.417Z,50.10
2023-04-22T12:31:16.364Z,50.20
2023-04-22T12:33:44.577Z,49.70
2023-04-22T12:36:11.978Z,51.00
2023-04-22T12:38:39.801Z,48.80
2023-04-22T12:41:08.139Z,50.60
2023-04-22T12:43:39.394Z,49.30
2023-04-22T12:46:08.042Z,52.00
2023-04-22T12:48:38.887Z,50.20
2023-04-22T12:51:07.000Z,50.30
2023-04-22T12:53:34.531Z,50.70
2023-04-22T12:56:01.726Z,51.50
2023-04-22T12:58:28.942Z,52.20
2023-04-22T13:00:56.085Z,52.90
2023-04-22T13:03:23.270Z,52.90
2023-04-22T13:05:50.990Z,52.80
2023-04-22T13:08:18.456Z,51.30
2023-04-22T13:10:45.588Z,52.20
2023-04-22T13:15:42.482Z,50.00
2023-04-22T13:18:09.527Z,49.80
2023-04-22T13:20:36.898Z,50.70
2023-04-22T13:23:04.888Z,50.90
2023-04-22T13:25:32.162Z,50.80
2023-04-22T13:27:59.248Z,49.60
2023-04-22T13:30:26.400Z,51.00
2023-04-22T13:32:53.627Z,51.70
2023-04-22T13:35:20.902Z,50.50
2023-04-22T13:37:47.981Z,51.20
2023-04-22T13:40:15.150Z,52.80
2023-04-22T13:42:42.934Z,51.30
2023-04-22T13:45:10.298Z,52.80
2023-04-22T13:47:37.285Z,53.20
2023-04-22T13:50:08.658Z,51.50
2023-04-22T13:52:35.881Z,51.10
2023-04-22T13:55:06.947Z,49.80
2023-04-22T13:57:34.089Z,52.00
2023-04-22T14:00:01.270Z,50.30
2023-04-22T14:02:28.257Z,49.50
2023-04-22T14:04:55.379Z,50.20
2023-04-22T14:07:22.450Z,50.20
2023-04-22T14:09:49.464Z,50.10
2023-04-22T14:12:16.751Z,49.00
2023-04-22T14:14:43.826Z,51.30
2023-04-22T14:17:11.357Z,49.40
2023-04-22T14:19:39.688Z,50.70
2023-04-22T14:22:06.923Z,50.30
2023-04-22T14:24:34.113Z,49.80
2023-04-22T14:27:04.515Z,49.80
2023-04-22T14:29:32.050Z,49.00
2023-04-22T14:31:59.529Z,48.80
2023-04-22T14:34:27.366Z,48.90
2023-04-22T14:36:54.530Z,47.00
2023-04-22T14:39:21.683Z,49.80
2023-04-22T14:41:49.102Z,49.40
2023-04-22T14:44:16.204Z,49.60
2023-04-22T14:46:43.197Z,50.60
2023-04-22T14:49:10.183Z,48.90
2023-04-22T14:51:37.336Z,49.00
2023-04-22T14:54:04.850Z,48.40
2023-04-22T14:56:32.325Z,47.70
2023-04-22T14:58:59.300Z,49.30
2023-04-22T15:01:26.422Z,49.50
2023-04-22T15:03:53.598Z,50.40
2023-04-22T15:06:20.794Z,50.30
2023-04-22T15:08:47.744Z,50.00
2023-04-22T15:11:14.834Z,50.10
2023-04-22T15:13:41.782Z,51.40
2023-04-22T15:16:08.863Z,50.90
2023-04-22T15:18:36.241Z,50.20
2023-04-22T15:21:05.828Z,51.20
2023-04-22T15:23:33.152Z,50.50
2023-04-22T15:26:00.340Z,50.70
2023-04-22T15:28:27.378Z,50.40
2023-04-22T15:30:54.427Z,50.00
2023-04-22T15:33:21.532Z,51.60
2023-04-22T15:35:50.376Z,50.60
2023-04-22T15:38:17.753Z,51.10
2023-04-22T15:40:44.858Z,52.00
2023-04-22T15:43:12.068Z,52.20
2023-04-22T15:45:39.178Z,52.40
2023-04-22T15:48:06.296Z,52.70
2023-04-22T15:50:33.467Z,52.20
2023-04-22T15:53:00.528Z,51.70
2023-04-22T15:55:27.663Z,52.40
2023-04-22T15:57:54.868Z,52.50
2023-04-22T16:00:21.896Z,52.50
2023-04-22T16:02:55.535Z,52.90
2023-04-22T16:05:24.785Z,52.60
2023-04-22T16:07:53.143Z,52.50
2023-04-22T16:10:20.392Z,52.30
2023-04-22T16:12:47.486Z,52.70
2023-04-22T16:15:14.629Z,53.40
2023-04-22T16:17:43.180Z,54.00
2023-04-22T16:20:10.647Z,54.10
2023-04-22T16:22:37.671Z,54.50
2023-04-22T16:25:05.158Z,54.30
2023-04-22T16:27:32.573Z,54.30
2023-04-22T16:29:59.905Z,54.20
2023-04-22T16:32:28.550Z,55.20
2023-04-22T16:34:56.119Z,55.40
2023-04-22T16:37:23.254Z,54.90
2023-04-22T16:39:50.676Z,55.30
2023-04-22T16:42:17.758Z,55.50
2023-04-22T16:44:45.019Z,55.50
2023-04-22T16:47:12.278Z,55.80
2023-04-22T16:49:39.701Z,55.60
2023-04-22T16:52:06.929Z,56.10
2023-04-22T16:54:34.137Z,56.00
2023-04-22T16:57:02.849Z,56.60
2023-04-22T16:59:30.020Z,56.90
2023-04-22T17:01:57.384Z,56.70
2023-04-22T17:04:24.661Z,56.70
2023-04-22T17:06:51.829Z,57.30
2023-04-22T17:09:19.125Z,57.60
2023-04-22T17:11:46.160Z,57.10
2023-04-22T17:14:13.748Z,57.60
2023-04-22T17:16:40.906Z,57.10
2023-04-22T17:19:07.996Z,57.60
2023-04-22T17:21:35.145Z,57.50
2023-04-22T17:24:03.905Z,57.40
2023-04-22T17:26:30.964Z,57.80
2023-04-22T17:28:57.978Z,58.40
2023-04-22T17:31:25.257Z,58.30
2023-04-22T17:33:52.280Z,58.80
2023-04-22T17:36:20.161Z,58.90
2023-04-22T17:38:47.179Z,59.80
2023-04-22T17:41:14.356Z,60.40
2023-04-22T17:43:41.630Z,61.50
2023-04-22T17:46:09.174Z,62.80
2023-04-22T17:48:36.856Z,62.80
2023-04-22T17:51:07.187Z,62.60
2023-04-22T17:53:34.554Z,62.40
2023-04-22T17:56:01.580Z,62.80
2023-04-22T17:58:28.789Z,62.60
2023-04-22T18:00:58.607Z,62.40
2023-04-22T18:03:26.432Z,62.70
2023-04-22T18:05:53.603Z,62.40
2023-04-22T18:08:20.667Z,62.70
2023-04-22T18:10:48.006Z,62.80
2023-04-22T18:13:15.508Z,63.60
2023-04-22T18:15:42.590Z,63.50
2023-04-22T18:18:09.686Z,63.20
2023-04-22T18:20:36.889Z,64.00
2023-04-22T18:23:04.159Z,66.40
2023-04-22T18:25:31.354Z,66.00
2023-04-22T18:27:58.486Z,66.50
2023-04-22T18:30:25.607Z,68.40
2023-04-22T18:32:53.249Z,69.40
2023-04-22T18:35:20.855Z,67.40
2023-04-22T18:37:48.052Z,69.50
2023-04-22T18:40:15.190Z,69.70
2023-04-22T18:42:45.090Z,70.30
2023-04-22T18:45:15.642Z,70.50
2023-04-22T18:47:44.146Z,71.40
2023-04-22T18:50:11.534Z,71.50
2023-04-22T18:52:38.726Z,72.10
2023-04-22T18:55:06.568Z,72.40
2023-04-22T18:57:33.859Z,73.10
2023-04-22T19:00:01.050Z,73.20
2023-04-22T19:02:28.910Z,72.80
2023-04-22T19:04:56.846Z,72.80
2023-04-22T19:07:25.384Z,72.80
2023-04-22T19:09:52.880Z,73.90
2023-04-22T19:12:20.040Z,74.10
2023-04-22T19:14:48.361Z,73.70
2023-04-22T19:17:15.733Z,73.20
2023-04-22T19:19:43.925Z,73.60
2023-04-22T19:22:12.972Z,74.20
2023-04-22T19:24:40.213Z,75.50
2023-04-22T19:27:13.936Z,75.30
2023-04-22T19:29:51.400Z,76.10
2023-04-22T19:32:19.256Z,75.90
2023-04-22T19:34:48.147Z,76.40
2023-04-22T19:37:15.492Z,76.10
2023-04-22T19:39:43.619Z,77.10
2023-04-22T19:42:11.672Z,78.20
2023-04-22T19:44:41.279Z,78.40
2023-04-22T19:47:08.894Z,78.70
2023-04-22T19:49:36.721Z,78.60
2023-04-22T19:52:04.605Z,78.10
2023-04-22T19:54:32.988Z,78.10
2023-04-22T19:57:02.662Z,77.80
2023-04-22T19:59:32.049Z,78.40
2023-04-22T20:02:00.142Z,80.10
2023-04-22T20:04:28.558Z,79.90
2023-04-22T20:06:57.338Z,77.40
2023-04-22T20:09:27.021Z,77.70
2023-04-22T20:11:54.260Z,78.00
2023-04-22T20:14:23.085Z,79.50
2023-04-22T20:16:50.727Z,80.00
2023-04-22T20:19:18.441Z,78.50
2023-04-22T20:21:48.314Z,77.90
2023-04-22T20:24:19.991Z,78.60
2023-04-22T20:26:50.385Z,78.70
2023-04-22T20:29:22.337Z,78.30
2023-04-22T20:31:49.907Z,78.50
2023-04-22T20:34:17.398Z,78.30
2023-04-22T20:36:45.011Z,78.20
2023-04-22T20:39:14.507Z,79.20
2023-04-22T20:41:42.023Z,79.90
2023-04-22T20:44:09.406Z,80.70
2023-04-22T20:46:37.922Z,80.70
2023-04-22T20:49:05.158Z,81.10
2023-04-22T20:51:32.207Z,81.00
2023-04-22T20:53:59.363Z,82.10
2023-04-22T20:56:27.460Z,82.80
2023-04-22T20:58:54.460Z,82.40
2023-04-22T21:01:21.514Z,81.40
2023-04-22T21:03:52.657Z,81.50
2023-04-22T21:06:21.276Z,81.60
2023-04-22T21:08:49.875Z,81.80
2023-04-22T21:11:17.788Z,82.00
2023-04-22T21:13:45.216Z,81.70
2023-04-22T21:16:16.444Z,81.60
2023-04-22T21:18:44.853Z,80.00
2023-04-22T21:21:15.705Z,79.80
2023-04-22T21:23:43.152Z,80.60
2023-04-22T21:26:10.887Z,81.10
2023-04-22T21:28:39.217Z,79.30
2023-04-22T21:31:06.862Z,78.80
2023-04-22T21:33:34.081Z,78.90
2023-04-22T21:36:01.234Z,79.40
2023-04-22T21:38:29.203Z,78.40
2023-04-22T21:40:56.270Z,79.40
2023-04-22T21:43:23.510Z,78.30
2023-04-22T21:45:51.808Z,78.10
2023-04-22T21:48:19.064Z,78.00
2023-04-22T21:50:46.108Z,78.00
2023-04-22T21:53:13.206Z,78.30
2023-04-22T21:55:40.717Z,77.90
2023-04-22T21:58:08.302Z,78.30
2023-04-22T22:00:35.318Z,78.90
2023-04-22T22:03:02.688Z,79.40
2023-04-22T22:05:30.416Z,79.70
2023-04-22T22:07:57.661Z,80.30
2023-04-22T22:10:25.133Z,80.80
2023-04-22T22:12:52.134Z,80.80
2023-04-22T22:15:19.498Z,81.10
2023-04-22T22:17:46.889Z,84.50
2023-04-22T22:20:20.670Z,85.20
2023-04-22T22:22:48.199Z,84.20
2023-04-22T22:25:16.620Z,83.20
2023-04-22T22:27:49.587Z,82.30
2023-04-22T22:30:18.808Z,82.10
2023-04-22T22:32:46.518Z,82.40
2023-04-22T22:35:13.927Z,81.60
2023-04-22T22:37:41.449Z,82.20
2023-04-22T22:40:09.137Z,83.30
2023-04-22T22:42:36.303Z,82.90
2023-04-22T22:45:05.212Z,84.50
2023-04-22T22:47:32.875Z,86.30
2023-04-22T22:50:00.536Z,86.60
2023-04-22T22:52:27.702Z,85.30
2023-04-22T22:54:54.813Z,84.80
2023-04-22T22:57:21.908Z,84.90
2023-04-22T22:59:48.947Z,84.60
2023-04-22T23:02:16.099Z,85.00
2023-04-22T23:04:43.494Z,85.30
2023-04-22T23:07:10.846Z,84.10
2023-04-22T23:09:37.934Z,83.70
2023-04-22T23:12:05.631Z,83.70
2023-04-22T23:14:33.461Z,84.20
2023-04-22T23:17:00.665Z,83.80
2023-04-22T23:19:28.617Z,84.40
2023-04-22T23:21:56.559Z,84.70
2023-04-22T23:24:23.702Z,85.00
2023-04-22T23:26:51.085Z,86.00
2023-04-22T23:29:19.582Z,85.50
2023-04-22T23:31:49.027Z,85.90
2023-04-22T23:34:19.256Z,85.70
2023-04-22T23:36:46.930Z,87.50
2023-04-22T23:39:14.037Z,87.40
2023-04-22T23:41:40.966Z,87.30
2023-04-22T23:44:08.071Z,88.50
2023-04-22T23:46:35.830Z,88.60
2023-04-22T23:49:03.211Z,88.80
2023-04-22T23:51:30.315Z,90.20
2023-04-22T23:53:57.318Z,89.50
2023-04-22T23:56:24.634Z,89.30
2023-04-22T23:58:52.272Z,90.30
